Tiempo atmosférico en la estación meteorológica de Arico, Santa Cruz de Tenerife (418 m.)



Fecha
DESCASC
Temp. máxima en grados centígrados (hora)
DESCASC
Temp. mínima en grados centígrados (hora)
DESCASC
Temp. media en grados centígrados
DESCASC
Racha de viento máxima en m/sg (hora)
DESCASC
Velocidad máxima media en intervalos de 10 minutos(hora)
DESCASC
Precipitaciones diarias en mm
DESCASC
Precipitaciones de 00:00 a 06:00 en mm
DESCASC
Precipitaciones de 06:00 a 12:00 en mm
DESCASC
Precipitaciones de 12:00 a 18:00 en mm
DESCASC
Precipitaciones de 18:00 a 24:00 en mm
DESCASC
19-02-2019 18.3 (13:10) 9.6 (05:40) 13.9 12.78 (11:50) 8.33 (11:50) 0 0 0 0 0
18-02-2019 17.6 (10:00) 10.4 (22:40) 14 12.78 (14:50) 7.78 (13:10) 0 0 0 0 0
17-02-2019 21 (14:30) 12.3 (00:00) 16.7 9.17 (13:10) 5.83 (12:00) 0 0 0 0 0
16-02-2019 17.4 (17:50) 12 (00:00) 14.7 7.5 (22:10) 5 (03:30) 0 0 0 0 0
15-02-2019 21.3 (00:20) 13 (00:00) 17.1 14.72 (00:20) 10 (00:20) 2.8 0 1.8 1 0
14-02-2019 24.2 (13:30) 18.9 (00:00) 21.6 13.33 (11:20) 8.61 (16:50) 0 0 0 0 0
13-02-2019 27.2 (11:00) 18.3 (00:00) 22.8 9.17 (16:40) 6.39 (16:40) 0 0 0 0 0
12-02-2019 26.7 (12:30) 17.8 (00:00) 22.3 6.39 (14:40) 4.44 (23:20) 0 0 0 0 0
11-02-2019 28.5 (14:40) 16 (00:00) 22.3 7.78 (12:50) 4.72 (07:10) 0 0 0 0 0
10-02-2019 23.3 (11:40) 12.2 (00:00) 17.7 9.44 (13:10) 6.39 (13:10) 0 0 0 0 0
09-02-2019 22 (16:10) 10 (00:00) 16 7.5 (09:20) 4.72 (09:20) 0 0 0 0 0
08-02-2019 17.9 (13:20) 10.1 (00:00) 14 11.39 (11:50) 6.67 (10:50) 0 0 0 0 0
07-02-2019 18.5 (12:00) 11.2 (00:00) 14.8 11.94 (14:50) 7.22 (13:00) 0 0 0 0 0
06-02-2019 22.1 (13:00) 13.1 (00:40) 17.6 8.06 (20:10) 5.56 (16:20) 0 0 0 0 0
05-02-2019 22.1 (14:40) 12.8 (22:00) 17.5 6.67 (13:20) 4.44 (04:10) 0 0 0 0 0
04-02-2019 20.5 (15:50) 11.1 (00:00) 15.8 12.22 (05:40) 7.5 (00:20) 0 0 0 0 0
03-02-2019 17 (14:20) 12.1 (00:00) 14.6 17.22 (12:20) 11.11 (10:20) 0 0 0 0 0
02-02-2019 18 (12:30) 12.7 (00:00) 15.3 16.94 (16:40) 9.17 (15:50) 0 0 0 0 0
01-02-2019 19.6 (14:50) 12.7 (00:00) 16.2 9.17 (15:50) 5.56 (14:20) 0 0 0 0 0
31-01-2019 16 (12:50) 12.4 (00:00) 14.2 5.83 (00:50) 3.33 (01:00) 0 0 0 0 0
30-01-2019 15.6 (15:00) 11.8 (00:00) 13.7 8.33 (14:40) 5.28 (14:40) 0 0 0 0 0
29-01-2019 17 (11:50) 11.1 (00:00) 14.1 11.39 (12:00) 7.78 (12:30) 0 0 0 0 0
28-01-2019 17.7 (14:00) 11.4 (00:00) 14.6 14.17 (14:50) 9.44 (13:30) 0 0 0 0 0
27-01-2019 17.3 (15:10) 11 (00:00) 14.1 8.06 (23:00) 4.72 (16:50) 0 0 0 0 0
26-01-2019 19.7 (11:40) 11.6 (00:00) 15.7 5.83 (12:00) 3.33 (15:00) 3.6 0 0 0 3.6
25-01-2019 20.3 (11:40) 11.7 (00:00) 16 9.72 (14:50) 4.44 (14:20) 0 0 0 0 0
24-01-2019 16.3 (15:00) 11.6 (00:00) 13.9 10.28 (09:50) 5.83 (09:50) 0 0 0 0 0

Gráficas

Temp. máximas Temp. mínimas Temp. medias Precipitaciones Rachas de viento máximas Velocidades máximas media en intervalos de 10 minutos

Datos horarios

Fecha y hora oficial Temperatura (ºC) Velocidad del viento (km/h) Dirección del viento Racha (km/h) Dirección de racha Precipitación (mm) Presión (hPa) Tendencia (hPa) Humedad (%)
2019-02-22 23:00:00 19.4 9 Noroeste 15 Noroeste 0 -- -- 15
2019-02-22 22:00:00 19.2 5 Noroeste 12 Noroeste 0 -- -- 14
2019-02-22 21:00:00 19.6 9 Oeste 20 Oeste 0 -- -- 15
2019-02-22 20:00:00 20.3 17 Oeste 24 Oeste 0 -- -- 15
2019-02-22 19:00:00 21.3 16 Sudoeste 23 Sudoeste 0 -- -- 16
2019-02-22 18:00:00 22.8 18 Sudoeste 27 Sudoeste 0 -- -- 19
2019-02-22 17:00:00 23.5 18 Sudoeste 30 Sur 0 -- -- 22
2019-02-22 16:00:00 24.3 19 Sur 33 Sur 0 -- -- 22
2019-02-22 15:00:00 24.5 22 Sur 36 Sur 0 -- -- 20
2019-02-22 14:00:00 25.3 19 Sudoeste 32 Sudoeste 0 -- -- 18
2019-02-22 13:00:00 25.3 20 Sudoeste 36 Sur 0 -- -- 14
2019-02-22 12:00:00 25.2 20 Sudoeste 32 Sudoeste 0 -- -- 14
2019-02-22 11:00:00 24.9 15 Sur 25 Sudoeste 0 -- -- 14
2019-02-22 10:00:00 23.8 15 Sudoeste 27 Sudoeste 0 -- -- 14
2019-02-22 09:00:00 21.9 14 Sudoeste 25 Sudoeste 0 -- -- 16
2019-02-22 08:00:00 19.7 17 Oeste 25 Oeste 0 -- -- 16
2019-02-22 07:00:00 18.7 16 Oeste 23 Oeste 0 -- -- 18
2019-02-22 06:00:00 18.4 14 Sudoeste 30 Oeste 0 -- -- 19
2019-02-22 05:00:00 19.3 13 Oeste 28 Oeste 0 -- -- 18
2019-02-22 04:00:00 19.3 19 Oeste 30 Sudoeste 0 -- -- 18
2019-02-22 03:00:00 17.2 16 Oeste 24 Oeste 0 -- -- 21
2019-02-22 02:00:00 15.9 5 Este 32 Oeste 0 -- -- 53
2019-02-22 01:00:00 19.1 15 Oeste 31 Oeste 0 -- -- 17
2019-02-22 00:00:00 17.7 15 Noroeste 29 Oeste 0 -- -- 15
2019-02-21 23:00:00 16.1 13 Oeste 18 Oeste 0 -- -- 24
2019-02-21 22:00:00 15.8 12 Oeste 19 Oeste 0 -- -- 30
2019-02-21 21:00:00 15.7 14 Oeste 20 Oeste 0 -- -- 36
2019-02-21 20:00:00 15.9 13 Oeste 21 Oeste 0 -- -- 42
2019-02-21 19:00:00 17.2 9 Sudoeste 20 Sudoeste 0 -- -- 43
2019-02-21 18:00:00 19 13 Sudoeste 24 Sudoeste 0 -- -- 40
2019-02-21 17:00:00 19.9 15 Sur 30 Sudeste 0 -- -- 41
2019-02-21 16:00:00 19.8 18 Sur 29 Sudeste 0 -- -- 46
2019-02-21 15:00:00 20 18 Sur 29 Sur 0 -- -- 48
2019-02-21 14:00:00 19.3 20 Sur 31 Sur 0 -- -- 63
2019-02-21 13:00:00 19 18 Sur 31 Sur 0 -- -- 63
2019-02-21 12:00:00 18.4 17 Sur 30 Sur 0 -- -- 59
2019-02-21 11:00:00 18 18 Sur 25 Sur 0 -- -- 54
2019-02-21 10:00:00 16.1 15 Sur 24 Sur 0 -- -- 54
2019-02-21 09:00:00 14.4 8 Sudoeste 15 Sudoeste 0 -- -- 55
2019-02-21 08:00:00 11.2 5 Noroeste 10 Noroeste 0 -- -- 58
2019-02-21 07:00:00 10.9 8 Noroeste 13 Noroeste 0 -- -- 44
2019-02-21 06:00:00 11 11 Noroeste 15 Noroeste 0 -- -- 42
2019-02-21 05:00:00 11.1 8 Noroeste 18 Noroeste 0 -- -- 55
2019-02-21 04:00:00 11.1 13 Noroeste 18 Noroeste 0 -- -- 57
2019-02-21 03:00:00 11.2 11 Noroeste 17 Norte 0 -- -- 66
2019-02-21 02:00:00 11.7 12 Noroeste 18 Noroeste 0 -- -- 75
2019-02-21 01:00:00 11.6 10 Noroeste 16 Noroeste 0 -- -- 73
2019-02-21 00:00:00 11.7 9 Noroeste 15 Norte 0 -- -- 73
2019-02-20 23:00:00 11.5 8 Norte 15 Norte 0 -- -- 71
2019-02-20 22:00:00 11.4 5 Noroeste 10 Noroeste 0 -- -- 71
2019-02-20 21:00:00 11.7 6 Noroeste 10 Norte 0 -- -- 71
2019-02-20 20:00:00 12.2 5 Noroeste 9 Noroeste 0 -- -- 69
2019-02-20 19:00:00 13.7 3 Este 11 Este 0 -- -- 64
2019-02-20 18:00:00 15.7 6 Este 19 Este 0 -- -- 56
2019-02-20 17:00:00 18.1 7 Este 20 Este 0 -- -- 47
2019-02-20 16:00:00 17.6 6 Sudeste 21 Este 0 -- -- 47
2019-02-20 15:00:00 18.5 12 Este 23 Este 0 -- -- 46
2019-02-20 14:00:00 18.2 12 Este 27 Este 0 -- -- 47
2019-02-20 13:00:00 18.4 12 Este 26 Nordeste 0 -- -- 46
2019-02-20 12:00:00 17.8 15 Nordeste 29 Este 0 -- -- 48
2019-02-20 11:00:00 16.7 16 Este 28 Nordeste 0 -- -- 50
2019-02-20 10:00:00 14.3 16 Nordeste 30 Nordeste 0 -- -- 56
2019-02-20 09:00:00 13.1 15 Norte 26 Norte 0 -- -- 60
2019-02-20 08:00:00 12.1 13 Norte 27 Norte 0 -- -- 63
2019-02-20 07:00:00 12.2 13 Norte 23 Norte 0 -- -- 62
2019-02-20 06:00:00 12.4 14 Nordeste 22 Nordeste 0 -- -- 63
2019-02-20 05:00:00 12.7 13 Nordeste 21 Nordeste 0 -- -- 65
2019-02-20 04:00:00 12.6 9 Norte 18 Nordeste 0 -- -- 64
2019-02-20 03:00:00 12.4 12 Norte 21 Nordeste 0 -- -- 65
2019-02-20 02:00:00 12.6 13 Nordeste 21 Norte 0 -- -- 66
2019-02-20 01:00:00 11.9 11 Norte 20 Nordeste 0 -- -- 66
2019-02-20 00:00:00 11.7 9 Norte 18 Norte 0 -- -- 67
2019-02-19 23:00:00 11 7 Noroeste 13 Noroeste 0 -- -- 68
2019-02-19 22:00:00 11.5 4 Noroeste 20 Oeste 0 -- -- 66
2019-02-19 21:00:00 11.7 16 Oeste 24 Oeste 0 -- -- 65
2019-02-19 20:00:00 12.1 3 Sudoeste 21 Nordeste 0 -- -- 65
2019-02-19 19:00:00 12.9 8 Nordeste 23 Este 0 -- -- 63
2019-02-19 18:00:00 14.5 12 Nordeste 24 Nordeste 0 -- -- 53
2019-02-19 17:00:00 15.2 15 Nordeste 31 Nordeste 0 -- -- 54
2019-02-19 16:00:00 15.3 21 Nordeste 37 Este 0 -- -- 55
2019-02-19 15:00:00 15.4 21 Este 37 Este 0 -- -- 59
2019-02-19 14:00:00 16.6 25 Nordeste 42 Nordeste 0 -- -- 58
2019-02-19 13:00:00 18.1 23 Nordeste 41 Nordeste 0 -- -- 50
2019-02-19 12:00:00 16.9 26 Nordeste 46 Nordeste 0 -- -- 54
2019-02-19 11:00:00 16.6 24 Nordeste 41 Este 0 -- -- 60
2019-02-19 10:00:00 15.3 25 Nordeste 40 Nordeste 0 -- -- 55
2019-02-19 09:00:00 13.5 17 Nordeste 30 Norte 0 -- -- 58
2019-02-19 08:00:00 10.1 9 Noroeste 20 Noroeste 0 -- -- 70
2019-02-19 07:00:00 10.2 9 Norte 18 Noroeste 0 -- -- 70
2019-02-19 06:00:00 10 10 Noroeste 19 Noroeste 0 -- -- 71
2019-02-19 05:00:00 10.6 10 Norte 28 Norte 0 -- -- 64
2019-02-19 04:00:00 10.2 10 Norte 23 Norte 0 -- -- 70
2019-02-19 03:00:00 10 8 Norte 19 Nordeste 0 -- -- 72
2019-02-19 02:00:00 10.2 8 Noroeste 17 Noroeste 0 -- -- 71
2019-02-19 01:00:00 10.2 7 Noroeste 12 Noroeste 0 -- -- 72
2019-02-19 00:00:00 10.8 4 Nordeste 10 Sudeste 0 -- -- 70
2019-02-18 23:00:00 10.6 4 Noroeste 14 Noroeste 0 -- -- 71
2019-02-18 22:00:00 10.8 7 Noroeste 14 Norte 0 -- -- 74
2019-02-18 21:00:00 11.3 8 Norte 14 Este 0 -- -- 73
2019-02-18 20:00:00 11.8 6 Norte 27 Nordeste 0 -- -- 70
2019-02-18 19:00:00 13.2 16 Nordeste 32 Este 0 -- -- 67
2019-02-18 18:00:00 14.7 21 Nordeste 45 Nordeste 0 -- -- 59
2019-02-18 17:00:00 15.1 23 Nordeste 40 Nordeste 0 -- -- 59
2019-02-18 16:00:00 15.4 21 Nordeste 44 Este 0 -- -- 59
2019-02-18 15:00:00 15.8 25 Nordeste 46 Nordeste 0 -- -- 60
2019-02-18 14:00:00 15.8 24 Nordeste 46 Nordeste 0 -- -- 71
2019-02-18 13:00:00 15.5 25 Nordeste 38 Nordeste 0 -- -- 70
2019-02-18 12:00:00 14.8 19 Nordeste 33 Nordeste 0 -- -- 79
2019-02-18 11:00:00 15 18 Nordeste 27 Nordeste 0 -- -- 84
2019-02-18 10:00:00 17.6 10 Este 15 Nordeste 0 -- -- 60
2019-02-18 09:00:00 15.2 4 Este 12 Noroeste 0 -- -- 57
2019-02-18 08:00:00 12.4 8 Noroeste 12 Noroeste 0 -- -- 44
2019-02-18 07:00:00 13.2 8 Noroeste 25 Oeste 0 -- -- 41
2019-02-18 06:00:00 13.1 19 Oeste 23 Oeste 0 -- -- 47
2019-02-18 05:00:00 12.6 15 Oeste 24 Oeste 0 -- -- 48
2019-02-18 04:00:00 12.4 9 Noroeste 12 Noroeste 0 -- -- 52
2019-02-18 03:00:00 12.5 8 Noroeste 15 Noroeste 0 -- -- 48
2019-02-18 02:00:00 13 14 Noroeste 18 Noroeste 0 -- -- 50
2019-02-18 01:00:00 12.9 7 Noroeste 12 Noroeste 0 -- -- 44
2019-02-18 00:00:00 13.5 8 Norte 19 Oeste 0 -- -- 44
2019-02-17 23:00:00 13.9 15 Oeste 23 Oeste 0 -- -- 41
2019-02-17 22:00:00 13.8 4 Oeste 13 Noroeste 0 -- -- 40
2019-02-17 21:00:00 14 10 Noroeste 14 Oeste 0 -- -- 42
2019-02-17 20:00:00 14 8 Noroeste 11 Noroeste 0 -- -- 62
2019-02-17 19:00:00 15.3 5 Nordeste 12 Este 0 -- -- 60
2019-02-17 18:00:00 17.3 8 Nordeste 19 Este 0 -- -- 49
2019-02-17 17:00:00 19.3 10 Nordeste 21 Nordeste 0 -- -- 39
2019-02-17 16:00:00 20.2 15 Este 29 Este 0 -- -- 30
2019-02-17 15:00:00 20.6 15 Este 30 Este 0 -- -- 31
2019-02-17 14:00:00 20.5 19 Nordeste 33 Este 0 -- -- 28
2019-02-17 13:00:00 20.7 20 Nordeste 30 Este 0 -- -- 27
2019-02-17 12:00:00 20.3 21 Nordeste 30 Nordeste 0 -- -- 28
2019-02-17 11:00:00 19.3 18 Nordeste 29 Este 0 -- -- 30
2019-02-17 10:00:00 18.5 17 Este 30 Nordeste 0 -- -- 29
2019-02-17 09:00:00 16.1 13 Nordeste 22 Nordeste 0 -- -- 29
2019-02-17 08:00:00 14.2 12 Norte 22 Norte 0 -- -- 29
2019-02-17 07:00:00 13.5 11 Norte 18 Norte 0 -- -- 33
2019-02-17 06:00:00 13.8 8 Norte 21 Norte 0 -- -- 33
2019-02-17 05:00:00 14.1 13 Norte 23 Nordeste 0 -- -- 32
2019-02-17 04:00:00 13.4 13 Norte 25 Norte 0 -- -- 37
2019-02-17 03:00:00 12.5 6 Norte 19 Norte 0 -- -- 42
2019-02-17 02:00:00 12.5 10 Nordeste 18 Nordeste 0 -- -- 57
2019-02-17 01:00:00 13.3 10 Nordeste 27 Nordeste 0 -- -- 58
2019-02-17 00:00:00 15.5 14 Norte 26 Norte 0 -- -- 33
2019-02-16 23:00:00 14.7 10 Nordeste 27 Norte 0 -- -- 36
2019-02-16 22:00:00 14.8 14 Norte 24 Norte 0 -- -- 38
2019-02-16 21:00:00 14.9 15 Norte 24 Norte 0 -- -- 39
2019-02-16 20:00:00 13.9 9 Norte 17 Nordeste 0 -- -- 51
2019-02-16 19:00:00 14.6 6 Noroeste 17 Este 0 -- -- 67
2019-02-16 18:00:00 17.3 6 Este 18 Este 0 -- -- 60
2019-02-16 17:00:00 16.4 10 Nordeste 16 Este 0 -- -- 65
2019-02-16 16:00:00 16.3 3 Nordeste 18 Este 0 -- -- 69
2019-02-16 15:00:00 16.3 7 Sur 18 Sudoeste 0 -- -- 73
2019-02-16 14:00:00 15.3 7 Sur 21 Sur 0 -- -- 76
2019-02-16 13:00:00 15.8 15 Sur 23 Sudeste 0 -- -- 75
2019-02-16 12:00:00 16.4 12 Sudoeste 19 Sur 0 -- -- 68
2019-02-16 11:00:00 16.3 12 Sur 22 Sur 0 -- -- 64
2019-02-16 10:00:00 15.9 9 Sudoeste 22 Sudoeste 0 -- -- 66
2019-02-16 09:00:00 15 14 Sudoeste 22 Sudoeste 0 -- -- 69
2019-02-16 08:00:00 12.2 12 Oeste 20 Noroeste 0 -- -- 74
2019-02-16 07:00:00 12.1 10 Noroeste 16 Noroeste 0 -- -- 75
2019-02-16 06:00:00 12.4 5 Norte 20 Noroeste 0 -- -- 71
2019-02-16 05:00:00 13.1 6 Sur 22 Oeste 0 -- -- 67
2019-02-16 04:00:00 13.6 13 Oeste 25 Oeste 0 -- -- 65
2019-02-16 03:00:00 13.1 15 Oeste 24 Oeste 0 -- -- 74
2019-02-16 02:00:00 12.6 13 Noroeste 23 Noroeste 0 -- -- 69
2019-02-16 01:00:00 13.1 5 Noroeste 14 Noroeste 0 -- -- 73
2019-02-16 00:00:00 13.2 8 Noroeste 16 Oeste 0 -- -- 76
2019-02-15 23:00:00 13.4 8 Noroeste 21 Oeste 0 -- -- 76
2019-02-15 22:00:00 13.4 13 Oeste 19 Oeste 0 -- -- 71
2019-02-15 21:00:00 13.1 13 Oeste 23 Oeste 0 -- -- 73
2019-02-15 20:00:00 13.1 8 Oeste 15 Oeste 0 -- -- 78
2019-02-15 19:00:00 14.4 3 Nordeste 6 Este 0 -- -- 71
2019-02-15 18:00:00 15.7 3 Oeste 15 Sudoeste 0 -- -- 64
2019-02-15 17:00:00 15.5 9 Sudoeste 15 Sur 0 -- -- 65
2019-02-15 16:00:00 16.3 9 Sur 15 Sudeste 0 -- -- 65
2019-02-15 15:00:00 17.1 7 Sudeste 17 Este 0 -- -- 63
2019-02-15 14:00:00 15.8 10 Nordeste 18 Norte 0 -- -- 78
2019-02-15 13:00:00 15.2 11 Nordeste 18 Nordeste 1 -- -- 89
2019-02-15 12:00:00 14.4 13 Nordeste 24 Sudeste 1.8 -- -- 90
2019-02-15 11:00:00 18.1 15 Sudeste 24 Sudeste 0 -- -- 65
2019-02-15 10:00:00 15.3 9 Sur 19 Sur 0 -- -- 84
2019-02-15 09:00:00 15.7 3 Sudeste 13 Nordeste 0 -- -- 75
2019-02-15 08:00:00 15.3 10 Nordeste 18 Nordeste 0 -- -- 76
2019-02-15 07:00:00 14.6 11 Norte 21 Norte 0 -- -- 80
2019-02-15 06:00:00 15 15 Nordeste 24 Nordeste 0 -- -- 78
2019-02-15 05:00:00 16.2 3 Sudoeste 6 Noroeste 0 -- -- 55
2019-02-15 04:00:00 16.7 0 Calma 14 Sur 0 -- -- 56
2019-02-15 03:00:00 20 9 Sur 38 Sudoeste 0 -- -- 17
2019-02-15 02:00:00 20.5 25 Sudoeste 45 Sudoeste 0 -- -- 12
2019-02-15 01:00:00 21 29 Sudoeste 53 Oeste 0 -- -- 11
2019-02-15 00:00:00 20.7 23 Sudoeste 40 Oeste 0 -- -- 11
2019-02-14 23:00:00 19.5 15 Sudoeste 31 Sudoeste 0 -- -- 14
2019-02-14 22:00:00 19.2 20 Sudoeste 28 Sudoeste 0 -- -- 19
2019-02-14 21:00:00 18.9 15 Sudoeste 26 Oeste 0 -- -- 26
2019-02-14 20:00:00 19.3 18 Sudoeste 29 Sudoeste 0 -- -- 27
2019-02-14 19:00:00 19.8 19 Sudoeste 35 Sudoeste 0 -- -- 30
2019-02-14 18:00:00 21.4 24 Sudoeste 37 Sudoeste 0 -- -- 28
2019-02-14 17:00:00 23.2 28 Sudoeste 45 Sudoeste 0 -- -- 23
2019-02-14 16:00:00 23.5 26 Sudoeste 46 Sudoeste 0 -- -- 25
2019-02-14 15:00:00 23.4 26 Sudoeste 45 Sudoeste 0 -- -- 25
2019-02-14 14:00:00 24.1 27 Sudoeste 44 Sudoeste 0 -- -- 23
2019-02-14 13:00:00 23.7 29 Sudoeste 48 Sudoeste 0 -- -- 24
2019-02-14 12:00:00 23.7 31 Sudoeste 48 Sudoeste 0 -- -- 22
2019-02-14 11:00:00 23.3 27 Sudoeste 42 Sudoeste 0 -- -- 20
2019-02-14 10:00:00 23.3 17 Sudoeste 32 Sudoeste 0 -- -- 13
2019-02-14 09:00:00 23.1 20 Sudoeste 33 Oeste 0 -- -- 11
2019-02-14 08:00:00 20.7 19 Oeste 32 Oeste 0 -- -- 11
2019-02-14 07:00:00 21.1 20 Oeste 31 Oeste 0 -- -- 10
2019-02-14 06:00:00 21.5 20 Oeste 31 Oeste 0 -- -- 10
2019-02-14 05:00:00 21.4 19 Oeste 30 Oeste 0 -- -- 10
2019-02-14 04:00:00 21.5 18 Oeste 28 Oeste 0 -- -- 10
2019-02-14 03:00:00 21.9 18 Oeste 30 Oeste 0 -- -- 9
2019-02-14 02:00:00 22.6 20 Oeste 31 Oeste 0 -- -- 9
2019-02-14 01:00:00 22.4 21 Oeste 33 Oeste 0 -- -- 9
2019-02-14 00:00:00 22 20 Oeste 30 Oeste 0 -- -- 8
2019-02-13 23:00:00 20.9 15 Oeste 24 Sudoeste 0 -- -- 9
2019-02-13 22:00:00 21.5 17 Oeste 29 Oeste 0 -- -- 9
2019-02-13 21:00:00 21.4 20 Oeste 27 Sudoeste 0 -- -- 8
2019-02-13 20:00:00 21.6 19 Oeste 27 Oeste 0 -- -- 9
2019-02-13 19:00:00 22.2 16 Sudoeste 28 Sudoeste 0 -- -- 10
2019-02-13 18:00:00 24.3 21 Sudoeste 31 Sudoeste 0 -- -- 9
2019-02-13 17:00:00 25.6 19 Sur 33 Sudoeste 0 -- -- 11
2019-02-13 16:00:00 26.2 18 Sur 30 Sudoeste 0 -- -- 10
2019-02-13 15:00:00 25.8 17 Sur 28 Sudoeste 0 -- -- 15
2019-02-13 14:00:00 26 18 Sur 27 Sudoeste 0 -- -- 15
2019-02-13 13:00:00 26.2 15 Sur 24 Sur 0 -- -- 16
2019-02-13 12:00:00 27 10 Sudeste 24 Sur 0 -- -- 14
2019-02-13 11:00:00 27.2 8 Sur 15 Sur 0 -- -- 11
2019-02-13 10:00:00 25 8 Sudoeste 19 Sudoeste 0 -- -- 11
2019-02-13 09:00:00 22.8 10 Oeste 21 Oeste 0 -- -- 13
2019-02-13 08:00:00 20.5 12 Noroeste 21 Noroeste 0 -- -- 13
2019-02-13 07:00:00 20 14 Noroeste 20 Noroeste 0 -- -- 13
2019-02-13 06:00:00 19.4 10 Noroeste 17 Noroeste 0 -- -- 13
2019-02-13 05:00:00 18.5 8 Noroeste 20 Noroeste 0 -- -- 14
2019-02-13 04:00:00 20.4 17 Noroeste 21 Noroeste 0 -- -- 12
2019-02-13 03:00:00 20.3 14 Noroeste 20 Noroeste 0 -- -- 13
2019-02-13 02:00:00 20.3 15 Noroeste 22 Noroeste 0 -- -- 12
2019-02-13 01:00:00 20.5 15 Noroeste 21 Noroeste 0 -- -- 12
2019-02-13 00:00:00 20.5 13 Noroeste 20 Noroeste 0 -- -- 13
2019-02-12 23:00:00 20.8 15 Noroeste 21 Noroeste 0 -- -- 13
2019-02-12 22:00:00 20.5 14 Noroeste 17 Noroeste 0 -- -- 13
2019-02-12 21:00:00 20.4 13 Noroeste 19 Noroeste 0 -- -- 15
2019-02-12 20:00:00 20.3 10 Noroeste 14 Noroeste 0 -- -- 17
2019-02-12 19:00:00 21.2 5 Noroeste 8 Noroeste 0 -- -- 20
2019-02-12 18:00:00 23.6 3 Noroeste 8 Nordeste 0 -- -- 35
2019-02-12 17:00:00 23.5 5 Nordeste 12 Nordeste 0 -- -- 46
2019-02-12 16:00:00 23.6 8 Este 17 Este 0 -- -- 42
2019-02-12 15:00:00 23.6 12 Nordeste 23 Nordeste 0 -- -- 37
2019-02-12 14:00:00 24.8 11 Este 19 Sudeste 0 -- -- 34
2019-02-12 13:00:00 26.4 9 Este 14 Este 0 -- -- 32
2019-02-12 12:00:00 25.9 9 Este 14 Este 0 -- -- 30
2019-02-12 11:00:00 24.9 8 Este 13 Este 0 -- -- 26
2019-02-12 10:00:00 23.6 4 Nordeste 8 Este 0 -- -- 17
2019-02-12 09:00:00 21 4 Noroeste 10 Noroeste 0 -- -- 15
2019-02-12 08:00:00 18.5 9 Noroeste 16 Noroeste 0 -- -- 15
2019-02-12 07:00:00 18.7 9 Noroeste 18 Noroeste 0 -- -- 14
2019-02-12 06:00:00 18.4 10 Noroeste 19 Noroeste 0 -- -- 15
2019-02-12 05:00:00 18.3 13 Noroeste 19 Noroeste 0 -- -- 16
2019-02-12 04:00:00 18.2 12 Noroeste 16 Noroeste 0 -- -- 15
2019-02-12 03:00:00 18.5 12 Noroeste 21 Noroeste 0 -- -- 14
2019-02-12 02:00:00 18.3 9 Noroeste 17 Norte 0 -- -- 15
2019-02-12 01:00:00 18.9 12 Noroeste 18 Nordeste 0 -- -- 16
2019-02-12 00:00:00 18.6 9 Noroeste 17 Noroeste 0 -- -- 16
2019-02-11 23:00:00 18.4 9 Noroeste 16 Noroeste 0 -- -- 15
2019-02-11 22:00:00 18.6 7 Noroeste 14 Noroeste 0 -- -- 15
2019-02-11 21:00:00 18.9 8 Noroeste 12 Noroeste 0 -- -- 14
2019-02-11 20:00:00 19.2 5 Noroeste 11 Noroeste 0 -- -- 16
2019-02-11 19:00:00 20.5 0 Calma 7 Sudeste 0 -- -- 18
2019-02-11 18:00:00 24.1 5 Sudeste 10 Sudeste 0 -- -- 12
2019-02-11 17:00:00 25.4 7 Sudeste 17 Sudeste 0 -- -- 12
2019-02-11 16:00:00 26.1 8 Sudeste 19 Sudeste 0 -- -- 16
2019-02-11 15:00:00 27.6 11 Sudeste 24 Sudeste 0 -- -- 19
2019-02-11 14:00:00 28 10 Sudeste 22 Sudeste 0 -- -- 11
2019-02-11 13:00:00 27.3 14 Sur 28 Sudeste 0 -- -- 10
2019-02-11 12:00:00 25.9 6 Sudeste 21 Sur 0 -- -- 12
2019-02-11 11:00:00 26.4 8 Sudeste 17 Sudeste 0 -- -- 11
2019-02-11 10:00:00 24.6 3 Este 8 Sudeste 0 -- -- 13
2019-02-11 09:00:00 21.2 7 Noroeste 21 Noroeste 0 -- -- 16
2019-02-11 08:00:00 19.6 12 Noroeste 24 Noroeste 0 -- -- 15
2019-02-11 07:00:00 19.1 13 Noroeste 19 Oeste 0 -- -- 15
2019-02-11 06:00:00 17.3 11 Noroeste 15 Norte 0 -- -- 18
2019-02-11 05:00:00 16.9 8 Noroeste 16 Norte 0 -- -- 18
2019-02-11 04:00:00 17.2 9 Noroeste 18 Norte 0 -- -- 17
2019-02-11 03:00:00 17.8 6 Norte 21 Noroeste 0 -- -- 17
2019-02-11 02:00:00 17.3 8 Norte 20 Norte 0 -- -- 17
2019-02-11 01:00:00 17.3 7 Nordeste 19 Noroeste 0 -- -- 18
2019-02-11 00:00:00 16.7 10 Norte 18 Norte 0 -- -- 19
2019-02-10 23:00:00 18.1 8 Oeste 23 Noroeste 0 -- -- 16
2019-02-10 22:00:00 18.4 11 Noroeste 20 Noroeste 0 -- -- 15
2019-02-10 21:00:00 16.5 10 Norte 18 Noroeste 0 -- -- 20
2019-02-10 20:00:00 17.3 9 Norte 20 Norte 0 -- -- 19
2019-02-10 19:00:00 17.4 9 Nordeste 23 Nordeste 0 -- -- 21
2019-02-10 18:00:00 19.6 12 Nordeste 28 Nordeste 0 -- -- 32
2019-02-10 17:00:00 20.2 16 Nordeste 28 Nordeste 0 -- -- 42
2019-02-10 16:00:00 21.2 14 Nordeste 29 Este 0 -- -- 40
2019-02-10 15:00:00 21.9 15 Este 32 Este 0 -- -- 35
2019-02-10 14:00:00 22.6 22 Este 34 Nordeste 0 -- -- 30
2019-02-10 13:00:00 23 20 Este 33 Nordeste 0 -- -- 26
2019-02-10 12:00:00 23.2 19 Nordeste 29 Nordeste 0 -- -- 25
2019-02-10 11:00:00 22.4 15 Nordeste 24 Este 0 -- -- 24
2019-02-10 10:00:00 20.7 15 Nordeste 25 Nordeste 0 -- -- 26
2019-02-10 09:00:00 18.8 8 Nordeste 19 Nordeste 0 -- -- 25
2019-02-10 08:00:00 16.5 13 Norte 21 Norte 0 -- -- 23
2019-02-10 07:00:00 14.8 11 Norte 18 Norte 0 -- -- 25
2019-02-10 06:00:00 12.4 9 Noroeste 15 Noroeste 0 -- -- 59
2019-02-10 05:00:00 15.4 5 Norte 12 Norte 0 -- -- 25
2019-02-10 04:00:00 16.9 11 Noroeste 18 Oeste 0 -- -- 21
2019-02-10 03:00:00 13.8 8 Noroeste 13 Nordeste 0 -- -- 40
2019-02-10 02:00:00 16.5 14 Noroeste 27 Noroeste 0 -- -- 25
2019-02-10 01:00:00 15.7 10 Noroeste 16 Noroeste 0 -- -- 26
2019-02-10 00:00:00 12.4 3 Nordeste 10 Noroeste 0 -- -- 71
2019-02-09 23:00:00 12.3 6 Norte 9 Nordeste 0 -- -- 75
2019-02-09 22:00:00 13.5 2 Nordeste 14 Noroeste 0 -- -- 68
2019-02-09 21:00:00 15.7 8 Noroeste 13 Noroeste 0 -- -- 25
2019-02-09 20:00:00 13.4 4 Oeste 9 Noroeste 0 -- -- 68
2019-02-09 19:00:00 15.6 2 Oeste 7 Noroeste 0 -- -- 55
2019-02-09 18:00:00 18.6 6 Este 9 Este 0 -- -- 65
2019-02-09 17:00:00 20.4 6 Este 13 Este 0 -- -- 54
2019-02-09 16:00:00 21.8 8 Sudeste 14 Este 0 -- -- 36
2019-02-09 15:00:00 21 9 Este 15 Nordeste 0 -- -- 53
2019-02-09 14:00:00 19.7 10 Este 21 Este 0 -- -- 60
2019-02-09 13:00:00 19 14 Este 22 Este 0 -- -- 61
2019-02-09 12:00:00 18.6 10 Nordeste 22 Este 0 -- -- 61
2019-02-09 11:00:00 17.1 14 Nordeste 22 Nordeste 0 -- -- 64
2019-02-09 10:00:00 15.1 13 Nordeste 27 Nordeste 0 -- -- 70
2019-02-09 09:00:00 12.9 10 Nordeste 22 Norte 0 -- -- 79
2019-02-09 08:00:00 10.3 10 Norte 19 Norte 0 -- -- 82
2019-02-09 07:00:00 10.3 8 Norte 21 Norte 0 -- -- 82
2019-02-09 06:00:00 10.3 5 Noroeste 18 Norte 0 -- -- 79
2019-02-09 05:00:00 10 8 Norte 18 Norte 0 -- -- 78
2019-02-09 04:00:00 10.4 10 Norte 20 Norte 0 -- -- 78
2019-02-09 03:00:00 10.6 10 Norte 22 Nordeste 0 -- -- 82
2019-02-09 02:00:00 10.6 11 Norte 18 Norte 0 -- -- 81
2019-02-09 01:00:00 10.7 7 Norte 19 Norte 0 -- -- 82
2019-02-09 00:00:00 11.1 11 Norte 22 Norte 0 -- -- 81
2019-02-08 23:00:00 11 12 Norte 20 Nordeste 0 -- -- 84
2019-02-08 22:00:00 11.1 10 Nordeste 22 Norte 0 -- -- 84
2019-02-08 21:00:00 11.3 4 Noroeste 13 Nordeste 0 -- -- 84
2019-02-08 20:00:00 11.7 5 Noroeste 15 Nordeste 0 -- -- 83
2019-02-08 19:00:00 12.9 12 Nordeste 26 Nordeste 0 -- -- 80
2019-02-08 18:00:00 14.6 14 Nordeste 28 Nordeste 0 -- -- 73
2019-02-08 17:00:00 15.8 18 Nordeste 30 Nordeste 0 -- -- 67
2019-02-08 16:00:00 16.8 19 Nordeste 32 Nordeste 0 -- -- 64
2019-02-08 15:00:00 17.1 22 Nordeste 36 Este 0 -- -- 63
2019-02-08 14:00:00 17.5 23 Nordeste 37 Este 0 -- -- 61
2019-02-08 13:00:00 17.4 24 Nordeste 37 Nordeste 0 -- -- 62
2019-02-08 12:00:00 16.8 22 Nordeste 41 Nordeste 0 -- -- 65
2019-02-08 11:00:00 16.2 21 Nordeste 35 Nordeste 0 -- -- 67
2019-02-08 10:00:00 15 19 Nordeste 30 Nordeste 0 -- -- 69
2019-02-08 09:00:00 12.8 10 Nordeste 23 Norte 0 -- -- 75
2019-02-08 08:00:00 10.6 13 Norte 24 Norte 0 -- -- 81
2019-02-08 07:00:00 10.5 10 Norte 21 Norte 0 -- -- 81
2019-02-08 06:00:00 10.7 12 Norte 26 Norte 0 -- -- 81
2019-02-08 05:00:00 10.8 11 Norte 21 Nordeste 0 -- -- 84
2019-02-08 04:00:00 10.6 10 Nordeste 21 Nordeste 0 -- -- 78
2019-02-08 03:00:00 10.7 10 Norte 20 Norte 0 -- -- 82
2019-02-08 02:00:00 10.9 10 Norte 21 Norte 0 -- -- 80
2019-02-08 01:00:00 11.4 12 Norte 24 Norte 0 -- -- 84
2019-02-08 00:00:00 11.5 14 Norte 25 Norte 0 -- -- 84
2019-02-07 23:00:00 11.5 10 Norte 21 Norte 0 -- -- 87
2019-02-07 22:00:00 11.2 7 Norte 16 Norte 0 -- -- 84
2019-02-07 21:00:00 11.8 7 Norte 17 Norte 0 -- -- 88
2019-02-07 20:00:00 12.6 10 Nordeste 23 Nordeste 0 -- -- 86
2019-02-07 19:00:00 13.3 13 Nordeste 28 Nordeste 0 -- -- 85
2019-02-07 18:00:00 15 16 Nordeste 28 Este 0 -- -- 77
2019-02-07 17:00:00 16.4 20 Nordeste 33 Este 0 -- -- 72
2019-02-07 16:00:00 17.4 21 Nordeste 35 Este 0 -- -- 67
2019-02-07 15:00:00 17.9 23 Nordeste 43 Este 0 -- -- 65
2019-02-07 14:00:00 18.2 23 Nordeste 39 Nordeste 0 -- -- 65
2019-02-07 13:00:00 18.4 26 Nordeste 41 Nordeste 0 -- -- 62
2019-02-07 12:00:00 18.5 23 Nordeste 41 Este 0 -- -- 62
2019-02-07 11:00:00 17.9 23 Nordeste 33 Nordeste 0 -- -- 63
2019-02-07 10:00:00 17 14 Nordeste 24 Este 0 -- -- 63
2019-02-07 09:00:00 14.6 9 Nordeste 15 Nordeste 0 -- -- 63
2019-02-07 08:00:00 13.1 4 Norte 17 Norte 0 -- -- 27
2019-02-07 07:00:00 14.5 11 Norte 21 Norte 0 -- -- 26
2019-02-07 06:00:00 15.1 14 Norte 27 Norte 0 -- -- 26
2019-02-07 05:00:00 15.3 13 Norte 25 Norte 0 -- -- 26
2019-02-07 04:00:00 15.6 16 Norte 28 Norte 0 -- -- 26
2019-02-07 03:00:00 15.5 14 Norte 24 Norte 0 -- -- 25
2019-02-07 02:00:00 15.8 15 Norte 27 Norte 0 -- -- 24
2019-02-07 01:00:00 15.6 14 Norte 25 Norte 0 -- -- 24
2019-02-07 00:00:00 16 14 Norte 25 Norte 0 -- -- 23
2019-02-06 23:00:00 16.1 14 Norte 28 Nordeste 0 -- -- 20
2019-02-06 22:00:00 16.3 13 Norte 25 Norte 0 -- -- 18
2019-02-06 21:00:00 16.5 14 Norte 29 Norte 0 -- -- 17
2019-02-06 20:00:00 16.3 14 Norte 24 Norte 0 -- -- 19
2019-02-06 19:00:00 15.9 12 Nordeste 22 Nordeste 0 -- -- 20
2019-02-06 18:00:00 17.2 15 Nordeste 25 Nordeste 0 -- -- 33
2019-02-06 17:00:00 18.4 16 Nordeste 28 Nordeste 0 -- -- 55
2019-02-06 16:00:00 20.1 17 Este 27 Este 0 -- -- 50
2019-02-06 15:00:00 21.5 15 Este 23 Este 0 -- -- 48
2019-02-06 14:00:00 20.9 16 Nordeste 24 Este 0 -- -- 48
2019-02-06 13:00:00 22.1 12 Nordeste 24 Este 0 -- -- 44
2019-02-06 12:00:00 21.5 11 Este 22 Este 0 -- -- 37
2019-02-06 11:00:00 20.1 15 Nordeste 27 Este 0 -- -- 35
2019-02-06 10:00:00 19 13 Nordeste 22 Nordeste 0 -- -- 27
2019-02-06 09:00:00 16.4 10 Nordeste 21 Nordeste 0 -- -- 27
2019-02-06 08:00:00 14.3 11 Norte 24 Nordeste 0 -- -- 26
2019-02-06 07:00:00 13.8 9 Norte 19 Nordeste 0 -- -- 26
2019-02-06 06:00:00 14.3 8 Norte 19 Norte 0 -- -- 20
2019-02-06 05:00:00 14.1 7 Noroeste 13 Noroeste 0 -- -- 14
2019-02-06 04:00:00 13.8 4 Noroeste 13 Noroeste 0 -- -- 17
2019-02-06 03:00:00 14.5 4 Norte 22 Oeste 0 -- -- 16
2019-02-06 02:00:00 14.1 3 Noroeste 20 Noroeste 0 -- -- 18
2019-02-06 01:00:00 13.2 13 Norte 17 Norte 0 -- -- 24
2019-02-06 00:00:00 13.7 3 Este 20 Noroeste 0 -- -- 21
2019-02-05 23:00:00 14.3 9 Noroeste 14 Noroeste 0 -- -- 15
2019-02-05 22:00:00 12.8 12 Noroeste 19 Noroeste 0 -- -- 40
2019-02-05 21:00:00 13.5 6 Norte 14 Norte 0 -- -- 41
2019-02-05 20:00:00 13.9 6 Noroeste 13 Noroeste 0 -- -- 36
2019-02-05 19:00:00 15.5 3 Oeste 9 Sudeste 0 -- -- 35
2019-02-05 18:00:00 18.4 7 Sudeste 15 Sur 0 -- -- 28
2019-02-05 17:00:00 19.8 10 Sudeste 19 Sur 0 -- -- 22
2019-02-05 16:00:00 20.8 10 Sudeste 22 Sudeste 0 -- -- 24
2019-02-05 15:00:00 21.7 13 Sudeste 23 Sudeste 0 -- -- 21
2019-02-05 14:00:00 21.7 12 Sur 24 Sudeste 0 -- -- 23
2019-02-05 13:00:00 21.6 14 Sudeste 22 Sudeste 0 -- -- 20
2019-02-05 12:00:00 21.7 11 Sur 18 Sudeste 0 -- -- 18
2019-02-05 11:00:00 20.4 7 Sur 14 Sur 0 -- -- 21
2019-02-05 10:00:00 18.4 3 Nordeste 14 Noroeste 0 -- -- 24
2019-02-05 09:00:00 15.8 9 Noroeste 17 Oeste 0 -- -- 23
2019-02-05 08:00:00 15.3 9 Noroeste 18 Noroeste 0 -- -- 23
2019-02-05 07:00:00 15.7 12 Noroeste 18 Noroeste 0 -- -- 20
2019-02-05 06:00:00 15.9 11 Noroeste 18 Noroeste 0 -- -- 18
2019-02-05 05:00:00 16 10 Noroeste 20 Noroeste 0 -- -- 20
2019-02-05 04:00:00 16.9 15 Noroeste 21 Noroeste 0 -- -- 20
2019-02-05 03:00:00 17.4 9 Noroeste 20 Noroeste 0 -- -- 20
2019-02-05 02:00:00 17.5 6 Oeste 21 Oeste 0 -- -- 24
2019-02-05 01:00:00 18 15 Noroeste 23 Noroeste 0 -- -- 20
2019-02-05 00:00:00 17.6 13 Noroeste 22 Noroeste 0 -- -- 23
2019-02-04 23:00:00 17.4 12 Noroeste 19 Noroeste 0 -- -- 24
2019-02-04 22:00:00 18 11 Noroeste 21 Noroeste 0 -- -- 24
2019-02-04 21:00:00 17.6 14 Noroeste 22 Noroeste 0 -- -- 28
2019-02-04 20:00:00 16.9 8 Noroeste 11 Noroeste 0 -- -- 32
2019-02-04 19:00:00 16.7 4 Oeste 9 Oeste 0 -- -- 51
2019-02-04 18:00:00 17 4 Norte 12 Nordeste 0 -- -- 77
2019-02-04 17:00:00 18.6 9 Este 14 Este 0 -- -- 70
2019-02-04 16:00:00 20.2 10 Este 19 Este 0 -- -- 63
2019-02-04 15:00:00 19.6 14 Este 26 Este 0 -- -- 64
2019-02-04 14:00:00 19.4 14 Nordeste 22 Nordeste 0 -- -- 65
2019-02-04 13:00:00 20.1 12 Este 25 Este 0 -- -- 61
2019-02-04 12:00:00 18.9 15 Nordeste 23 Nordeste 0 -- -- 64
2019-02-04 11:00:00 17.3 16 Nordeste 32 Nordeste 0 -- -- 65
2019-02-04 10:00:00 15.5 21 Nordeste 34 Nordeste 0 -- -- 68
2019-02-04 09:00:00 13 6 Nordeste 18 Norte 0 -- -- 72
2019-02-04 08:00:00 11.2 9 Norte 41 Nordeste 0 -- -- 78
2019-02-04 07:00:00 12.4 24 Nordeste 42 Nordeste 0 -- -- 78
2019-02-04 06:00:00 12.5 26 Nordeste 44 Este 0 -- -- 77
2019-02-04 05:00:00 11.7 12 Nordeste 40 Nordeste 0 -- -- 78
2019-02-04 04:00:00 12.6 23 Nordeste 44 Nordeste 0 -- -- 75
2019-02-04 03:00:00 12.6 24 Nordeste 41 Nordeste 0 -- -- 77
2019-02-04 02:00:00 12.5 21 Nordeste 42 Nordeste 0 -- -- 73
2019-02-04 01:00:00 12.5 23 Nordeste 41 Nordeste 0 -- -- 73
2019-02-04 00:00:00 12.7 23 Nordeste 40 Nordeste 0 -- -- 74
2019-02-03 23:00:00 12.8 26 Nordeste 42 Nordeste 0 -- -- 72
2019-02-03 22:00:00 12.6 23 Nordeste 36 Nordeste 0 -- -- 72
2019-02-03 21:00:00 12.5 20 Nordeste 36 Nordeste 0 -- -- 74
2019-02-03 20:00:00 12.8 24 Nordeste 41 Nordeste 0 -- -- 78
2019-02-03 19:00:00 13.1 21 Nordeste 50 Nordeste 0 -- -- 74
2019-02-03 18:00:00 14.3 28 Nordeste 48 Nordeste 0 -- -- 69
2019-02-03 17:00:00 15.4 32 Nordeste 54 Nordeste 0 -- -- 68
2019-02-03 16:00:00 16.1 33 Nordeste 59 Nordeste 0 -- -- 61
2019-02-03 15:00:00 16.7 31 Nordeste 58 Nordeste 0 -- -- 63
2019-02-03 14:00:00 16.8 34 Nordeste 58 Nordeste 0 -- -- 59
2019-02-03 13:00:00 16.7 36 Nordeste 62 Nordeste 0 -- -- 60
2019-02-03 12:00:00 16.3 38 Nordeste 59 Nordeste 0 -- -- 61
2019-02-03 11:00:00 15.9 36 Nordeste 58 Nordeste 0 -- -- 63
2019-02-03 10:00:00 14.8 27 Nordeste 45 Este 0 -- -- 63
2019-02-03 09:00:00 12.8 26 Nordeste 44 Nordeste 0 -- -- 69
2019-02-03 08:00:00 12.6 24 Nordeste 43 Nordeste 0 -- -- 70
2019-02-03 07:00:00 12.2 14 Nordeste 43 Nordeste 0 -- -- 70
2019-02-03 06:00:00 12.8 31 Nordeste 53 Nordeste 0 -- -- 68
2019-02-03 05:00:00 12.8 31 Nordeste 50 Nordeste 0 -- -- 71
2019-02-03 04:00:00 13.1 29 Nordeste 42 Nordeste 0 -- -- 70
2019-02-03 03:00:00 12.9 26 Nordeste 48 Nordeste 0 -- -- 69
2019-02-03 02:00:00 12.9 26 Nordeste 49 Nordeste 0 -- -- 69
2019-02-03 01:00:00 13 29 Nordeste 51 Nordeste 0 -- -- 68
2019-02-03 00:00:00 12.7 28 Nordeste 47 Nordeste 0 -- -- 66
2019-02-02 23:00:00 12.8 25 Nordeste 46 Nordeste 0 -- -- 68
2019-02-02 22:00:00 12.9 25 Nordeste 48 Nordeste 0 -- -- 67
2019-02-02 21:00:00 12.8 25 Nordeste 50 Nordeste 0 -- -- 66
2019-02-02 20:00:00 13 28 Nordeste 47 Nordeste 0 -- -- 67
2019-02-02 19:00:00 13.1 24 Nordeste 45 Nordeste 0 -- -- 71
2019-02-02 18:00:00 14.3 26 Nordeste 47 Nordeste 0 -- -- 69
2019-02-02 17:00:00 15.4 29 Nordeste 61 Nordeste 0 -- -- 62
2019-02-02 16:00:00 16.2 28 Nordeste 59 Nordeste 0 -- -- 65
2019-02-02 15:00:00 16.6 32 Nordeste 51 Nordeste 0 -- -- 62
2019-02-02 14:00:00 17.1 31 Nordeste 52 Nordeste 0 -- -- 55
2019-02-02 13:00:00 17.2 24 Nordeste 45 Este 0 -- -- 57
2019-02-02 12:00:00 17.3 24 Nordeste 48 Nordeste 0 -- -- 59
2019-02-02 11:00:00 15.3 25 Nordeste 39 Nordeste 0 -- -- 64
2019-02-02 10:00:00 14.3 19 Nordeste 32 Nordeste 0 -- -- 67
2019-02-02 09:00:00 13.7 19 Nordeste 36 Nordeste 0 -- -- 74
2019-02-02 08:00:00 13.4 16 Nordeste 32 Nordeste 0 -- -- 77
2019-02-02 07:00:00 13.6 17 Nordeste 30 Nordeste 0 -- -- 84
2019-02-02 06:00:00 13.5 16 Nordeste 26 Nordeste 0 -- -- 89
2019-02-02 05:00:00 13.5 3 Norte 8 Nordeste 0 -- -- 92
2019-02-02 04:00:00 13.7 3 Noroeste 6 Noroeste 0 -- -- 91
2019-02-02 03:00:00 13.6 7 Nordeste 15 Nordeste 0 -- -- 82
2019-02-02 02:00:00 13.1 4 Norte 22 Sudoeste 0 -- -- 79
2019-02-02 01:00:00 13.2 12 Oeste 18 Sudoeste 0 -- -- 75
2019-02-02 00:00:00 13.1 6 Oeste 18 Oeste 0 -- -- 73
2019-02-01 23:00:00 12.9 5 Sudoeste 13 Oeste 0 -- -- 75
2019-02-01 22:00:00 13.4 5 Oeste 11 Noroeste 0 -- -- 81
2019-02-01 21:00:00 14.5 3 Este 8 Este 0 -- -- 81
2019-02-01 20:00:00 14.9 5 Nordeste 10 Este 0 -- -- 80
2019-02-01 19:00:00 15.5 6 Este 14 Este 0 -- -- 76
2019-02-01 18:00:00 17.7 8 Sudeste 22 Sur 0 -- -- 63
2019-02-01 17:00:00 18.7 14 Sur 30 Sur 0 -- -- 57
2019-02-01 16:00:00 19 18 Sur 33 Sudoeste 0 -- -- 58
2019-02-01 15:00:00 19.6 17 Sur 32 Sur 0 -- -- 55
2019-02-01 14:00:00 19.1 19 Sur 31 Sudoeste 0 -- -- 56
2019-02-01 13:00:00 19.1 17 Sur 28 Sur 0 -- -- 57
2019-02-01 12:00:00 18.3 16 Sur 26 Sur 0 -- -- 59
2019-02-01 11:00:00 17.7 12 Sur 19 Sur 0 -- -- 58
2019-02-01 10:00:00 16.9 11 Sur 20 Sur 0 -- -- 63
2019-02-01 09:00:00 14 8 Oeste 14 Oeste 0 -- -- 67
2019-02-01 08:00:00 13.2 10 Oeste 18 Oeste 0 -- -- 69
2019-02-01 07:00:00 13.3 9 Oeste 13 Oeste 0 -- -- 68
2019-02-01 06:00:00 13.2 8 Oeste 12 Oeste 0 -- -- 69
2019-02-01 05:00:00 13.3 9 Oeste 17 Oeste 0 -- -- 67
2019-02-01 04:00:00 13.5 10 Noroeste 17 Oeste 0 -- -- 66
2019-02-01 03:00:00 13.6 9 Oeste 15 Sudoeste 0 -- -- 68
2019-02-01 02:00:00 14 9 Oeste 19 Sudoeste 0 -- -- 70
2019-02-01 01:00:00 14 10 Sudoeste 26 Sudoeste 0 -- -- 70
2019-02-01 00:00:00 13.8 6 Oeste 9 Oeste 0 -- -- 77
2019-01-31 23:00:00 14 4 Sur 13 Sudoeste 0 -- -- 77
2019-01-31 22:00:00 14 7 Sudoeste 13 Sudoeste -- -- -- 75
2019-01-31 21:00:00 14 6 Sur 11 Sur 0 -- -- 75
2019-01-31 20:00:00 14 3 Sur 12 Este 0 -- -- 77
2019-01-31 19:00:00 14.4 3 Sudoeste 7 Este 0 -- -- 77
2019-01-31 18:00:00 14.6 4 Sudeste 10 Sudeste 0 -- -- 78
2019-01-31 17:00:00 14.7 2 Sudeste 14 Este 0 -- -- 76
2019-01-31 16:00:00 14.7 10 Este 15 Este 0 -- -- 81
2019-01-31 15:00:00 15.2 11 Nordeste 17 Este 0 -- -- 78
2019-01-31 14:00:00 15.6 5 Este 14 Sudeste 0 -- -- 75
2019-01-31 13:00:00 15.9 7 Sudoeste 12 Sudoeste 0 -- -- 65
2019-01-31 12:00:00 15.6 7 Sudoeste 16 Sudoeste 0 -- -- 65
2019-01-31 11:00:00 14.8 10 Sudoeste 15 Sudoeste 0 -- -- 68
2019-01-31 10:00:00 14.3 4 Sudeste 11 Sur 0 -- -- 71
2019-01-31 09:00:00 13.1 2 Sudoeste 10 Noroeste 0 -- -- 76
2019-01-31 08:00:00 12.4 6 Oeste 13 Sudoeste 0 -- -- 76
2019-01-31 07:00:00 12.6 6 Oeste 9 Sudoeste 0 -- -- 77
2019-01-31 06:00:00 12.7 0 Calma 12 Oeste 0 -- -- 73
2019-01-31 05:00:00 13 6 Oeste 9 Oeste 0 -- -- 73
2019-01-31 04:00:00 13.4 6 Oeste 15 Oeste 0 -- -- 78
2019-01-31 03:00:00 13.4 9 Sudoeste 19 Sudoeste 0 -- -- 78
2019-01-31 02:00:00 13.5 11 Sudoeste 16 Sudoeste 0 -- -- 78
2019-01-31 01:00:00 13.5 12 Sudoeste 21 Sur 0 -- -- 76
2019-01-31 00:00:00 13.5 9 Sur 18 Sudoeste 0 -- -- 79
2019-01-30 23:00:00 13.4 8 Este 14 Este 0 -- -- 82
2019-01-30 22:00:00 13.5 4 Nordeste 12 Este 0 -- -- 84
2019-01-30 21:00:00 13.6 2 Sudoeste 16 Este 0 -- -- 85
2019-01-30 20:00:00 13.8 8 Este 22 Sudoeste 0 -- -- 85
2019-01-30 19:00:00 14.2 12 Sudeste 24 Sudeste 0 -- -- 84
2019-01-30 18:00:00 14.8 7 Nordeste 22 Este 0 -- -- 80
2019-01-30 17:00:00 15.5 14 Este 26 Este 0 -- -- 74
2019-01-30 16:00:00 15.3 11 Nordeste 24 Este 0 -- -- 76
2019-01-30 15:00:00 15.6 15 Este 30 Este 0 -- -- 78
2019-01-30 14:00:00 15.2 14 Nordeste 28 Este 0 -- -- 77
2019-01-30 13:00:00 14.9 15 Nordeste 30 Nordeste 0 -- -- 82
2019-01-30 12:00:00 14.8 14 Nordeste 24 Nordeste 0 -- -- 79
2019-01-30 11:00:00 14.6 13 Nordeste 26 Nordeste 0 -- -- 86
2019-01-30 10:00:00 14.1 9 Este 18 Nordeste 0 -- -- 81
2019-01-30 09:00:00 12.9 4 Nordeste 16 Noroeste 0 -- -- 75
2019-01-30 08:00:00 12.7 9 Noroeste 21 Oeste 0 -- -- 76
2019-01-30 07:00:00 12 4 Norte 15 Nordeste 0 -- -- 79
2019-01-30 06:00:00 12.6 6 Norte 19 Nordeste 0 -- -- 83
2019-01-30 05:00:00 12.6 13 Nordeste 20 Nordeste 0 -- -- 87
2019-01-30 04:00:00 11.9 9 Norte 21 Nordeste 0 -- -- 85
2019-01-30 03:00:00 13.1 10 Nordeste 23 Nordeste 0 -- -- 87
2019-01-30 02:00:00 13.1 11 Norte 19 Norte 0 -- -- 86
2019-01-30 01:00:00 13.2 7 Nordeste 21 Norte 0 -- -- 90
2019-01-30 00:00:00 13.1 13 Nordeste 22 Norte 0 -- -- 88
2019-01-29 23:00:00 12.6 14 Norte 25 Nordeste 0 -- -- 85
2019-01-29 22:00:00 12.5 10 Norte 26 Nordeste 0 -- -- 85
2019-01-29 21:00:00 13.2 15 Nordeste 36 Nordeste 0 -- -- 90
2019-01-29 20:00:00 13 11 Nordeste 28 Nordeste 0 -- -- 87
2019-01-29 19:00:00 13.8 17 Nordeste 31 Este 0 -- -- 83
2019-01-29 18:00:00 14.3 18 Nordeste 31 Nordeste 0 -- -- 85
2019-01-29 17:00:00 14.3 22 Nordeste 34 Nordeste 0 -- -- 88
2019-01-29 16:00:00 14.8 19 Nordeste 41 Nordeste 0 -- -- 85
2019-01-29 15:00:00 15.1 22 Nordeste 38 Nordeste 0 -- -- 80
2019-01-29 14:00:00 15.5 27 Nordeste 41 Nordeste 0 -- -- 81
2019-01-29 13:00:00 16.5 23 Nordeste 40 Este 0 -- -- 72
2019-01-29 12:00:00 16.8 27 Nordeste 41 Nordeste 0 -- -- 72
2019-01-29 11:00:00 16.4 22 Nordeste 37 Nordeste 0 -- -- 73
2019-01-29 10:00:00 15.1 21 Nordeste 39 Nordeste 0 -- -- 76
2019-01-29 09:00:00 13.4 18 Nordeste 31 Nordeste 0 -- -- 81
2019-01-29 08:00:00 11.9 13 Nordeste 23 Nordeste 0 -- -- 82
2019-01-29 07:00:00 11.4 11 Norte 21 Norte 0 -- -- 84
2019-01-29 06:00:00 11.3 11 Norte 21 Norte 0 -- -- 83
2019-01-29 05:00:00 11.3 13 Nordeste 24 Norte 0 -- -- 79
2019-01-29 04:00:00 11.5 13 Nordeste 24 Norte 0 -- -- 80
2019-01-29 03:00:00 11.5 12 Norte 22 Norte 0 -- -- 81
2019-01-29 02:00:00 11.3 9 Norte 20 Norte 0 -- -- 82
2019-01-29 01:00:00 11.5 9 Norte 19 Norte 0 -- -- 81
2019-01-29 00:00:00 11.5 8 Nordeste 21 Nordeste 0 -- -- 83
2019-01-28 23:00:00 12.1 12 Nordeste 27 Nordeste 0 -- -- 81
2019-01-28 22:00:00 12.5 18 Nordeste 40 Nordeste 0 -- -- 83
2019-01-28 21:00:00 13.2 26 Nordeste 45 Nordeste 0 -- -- 80
2019-01-28 20:00:00 12.9 17 Nordeste 36 Nordeste 0 -- -- 81
2019-01-28 19:00:00 13.8 22 Nordeste 42 Nordeste 0 -- -- 80
2019-01-28 18:00:00 14.5 23 Nordeste 48 Nordeste 0 -- -- 75
2019-01-28 17:00:00 14.9 27 Nordeste 46 Nordeste 0 -- -- 74
2019-01-28 16:00:00 16.4 29 Nordeste 47 Este 0 -- -- 72
2019-01-28 15:00:00 17.5 27 Nordeste 51 Este 0 -- -- 65
2019-01-28 14:00:00 17.7 24 Nordeste 50 Nordeste 0 -- -- 69
2019-01-28 13:00:00 17.5 31 Nordeste 49 Este 0 -- -- 62
2019-01-28 12:00:00 17.2 31 Nordeste 44 Este 0 -- -- 65
2019-01-28 11:00:00 17.3 22 Nordeste 43 Nordeste 0 -- -- 62
2019-01-28 10:00:00 16 25 Nordeste 44 Nordeste 0 -- -- 64
2019-01-28 09:00:00 14 14 Nordeste 27 Nordeste 0 -- -- 76
2019-01-28 08:00:00 12.5 18 Nordeste 30 Nordeste 0 -- -- 79
2019-01-28 07:00:00 12.3 10 Norte 31 Nordeste 0 -- -- 78
2019-01-28 06:00:00 12.2 13 Norte 24 Norte 0 -- -- 77
2019-01-28 05:00:00 12.8 16 Norte 25 Norte 0 -- -- 76
2019-01-28 04:00:00 12.7 12 Norte 31 Norte 0 -- -- 77
2019-01-28 03:00:00 13.4 18 Nordeste 30 Nordeste 0 -- -- 82
2019-01-28 02:00:00 12.7 14 Nordeste 24 Nordeste 0 -- -- 77
2019-01-28 01:00:00 12.4 6 Noroeste 13 Oeste 0 -- -- 73
2019-01-28 00:00:00 12.9 6 Norte 22 Nordeste 0 -- -- 73
2019-01-27 23:00:00 13.6 17 Nordeste 29 Nordeste 0 -- -- 71
2019-01-27 22:00:00 13.1 13 Nordeste 26 Nordeste 0 -- -- 71
2019-01-27 21:00:00 12.6 8 Norte 17 Norte 0 -- -- 73
2019-01-27 20:00:00 13.1 9 Noroeste 17 Nordeste 0 -- -- 78
2019-01-27 19:00:00 14 5 Noroeste 18 Nordeste 0 -- -- 76
2019-01-27 18:00:00 15.1 13 Este 24 Nordeste 0 -- -- 76
2019-01-27 17:00:00 15.5 15 Nordeste 25 Este 0 -- -- 78
2019-01-27 16:00:00 16.4 13 Nordeste 22 Este 0 -- -- 75
2019-01-27 15:00:00 17.1 14 Nordeste 22 Este 0 -- -- 71
2019-01-27 14:00:00 16.5 13 Nordeste 23 Nordeste 0 -- -- 74
2019-01-27 13:00:00 16.1 14 Nordeste 23 Nordeste 0 -- -- 76
2019-01-27 12:00:00 16 13 Nordeste 28 Nordeste 0 -- -- 75
2019-01-27 11:00:00 17 13 Nordeste 21 Nordeste 0 -- -- 74
2019-01-27 10:00:00 13.2 4 Norte 10 Noroeste 0 -- -- 83
2019-01-27 09:00:00 11.9 9 Noroeste 15 Noroeste 0 -- -- 80
2019-01-27 08:00:00 11.4 8 Noroeste 17 Noroeste 0 -- -- 76
2019-01-27 07:00:00 11.4 10 Noroeste 14 Norte 0 -- -- 81
2019-01-27 06:00:00 11.2 10 Noroeste 17 Noroeste 0 -- -- 80
2019-01-27 05:00:00 11 12 Noroeste 16 Noroeste 0 -- -- 81
2019-01-27 04:00:00 11.6 11 Noroeste 15 Noroeste 0 -- -- 81
2019-01-27 03:00:00 11.8 12 Noroeste 15 Noroeste 0 -- -- 84
2019-01-27 02:00:00 12.4 4 Norte 13 Noroeste 0 -- -- 86
2019-01-27 01:00:00 12.6 7 Noroeste 12 Noroeste 0 -- -- 86
2019-01-27 00:00:00 13.5 3 Noroeste 10 Noroeste 0 -- -- 88
2019-01-26 23:00:00 13.5 5 Noroeste 10 Norte 0 -- -- 88
2019-01-26 22:00:00 13.6 6 Nordeste 13 Nordeste 0 -- -- 92
2019-01-26 21:00:00 13.7 6 Nordeste 10 Nordeste 0 -- -- 94
2019-01-26 20:00:00 14.1 6 Nordeste 13 Nordeste 0.8 -- -- 92
2019-01-26 19:00:00 14.7 0 Calma 7 Este 2.8 -- -- 90
2019-01-26 18:00:00 15.2 3 Sudeste 12 Este 0 -- -- 85
2019-01-26 17:00:00 15.6 6 Este 12 Nordeste 0 -- -- 81
2019-01-26 16:00:00 16.4 8 Este 19 Este 0 -- -- 78
2019-01-26 15:00:00 16.7 12 Nordeste 18 Este 0 -- -- 72
2019-01-26 14:00:00 17.1 7 Este 18 Este 0 -- -- 69
2019-01-26 13:00:00 18.6 9 Este 20 Este 0 -- -- 64
2019-01-26 12:00:00 19.2 11 Nordeste 21 Nordeste 0 -- -- 63
2019-01-26 11:00:00 17.4 4 Este 10 Sudeste 0 -- -- 71
2019-01-26 10:00:00 16.2 5 Nordeste 10 Nordeste 0 -- -- 73
2019-01-26 09:00:00 13.1 0 Calma 12 Noroeste 0 -- -- 84
2019-01-26 08:00:00 11.9 10 Noroeste 15 Noroeste 0 -- -- 70
2019-01-26 07:00:00 11.8 10 Noroeste 17 Noroeste 0 -- -- 71
2019-01-26 06:00:00 12.1 9 Noroeste 14 Noroeste 0 -- -- 78
2019-01-26 05:00:00 12 4 Noroeste 14 Noroeste 0 -- -- 78
2019-01-26 04:00:00 12.3 11 Noroeste 15 Noroeste 0 -- -- 77
2019-01-26 03:00:00 12.4 7 Noroeste 14 Noroeste 0 -- -- 78
2019-01-26 02:00:00 12.6 4 Noroeste 11 Noroeste 0 -- -- 76
2019-01-26 01:00:00 13 5 Noroeste 10 Noroeste 0 -- -- 79
2019-01-26 00:00:00 13.2 3 Noroeste 12 Noroeste 0 -- -- 77
2019-01-25 23:00:00 13.6 5 Oeste 9 Oeste 0 -- -- 78
2019-01-25 22:00:00 13.6 5 Norte 10 Norte 0 -- -- 87
2019-01-25 21:00:00 13.2 3 Norte 10 Noroeste 0 -- -- 87
2019-01-25 20:00:00 13.9 3 Nordeste 6 Este 0 -- -- 88
2019-01-25 19:00:00 14.7 4 Este 14 Este 0 -- -- 89
2019-01-25 18:00:00 15.3 8 Este 16 Este 0 -- -- 83
2019-01-25 17:00:00 15.8 13 Este 19 Este 0 -- -- 80
2019-01-25 16:00:00 16.9 9 Este 23 Este 0 -- -- 74
2019-01-25 15:00:00 17.4 13 Este 35 Este 0 -- -- 68
2019-01-25 14:00:00 19.3 13 Este 24 Este 0 -- -- 63
2019-01-25 13:00:00 17.3 12 Nordeste 24 Este 0 -- -- 70
2019-01-25 12:00:00 19.1 11 Este 20 Este 0 -- -- 63
2019-01-25 11:00:00 19.3 11 Sudeste 21 Sudeste 0 -- -- 67
2019-01-25 10:00:00 16.8 6 Nordeste 11 Nordeste 0 -- -- 70
2019-01-25 09:00:00 13.8 0 Calma 13 Noroeste 0 -- -- 82
2019-01-25 08:00:00 13.2 6 Noroeste 12 Noroeste 0 -- -- 85
2019-01-25 07:00:00 12.9 9 Noroeste 19 Norte 0 -- -- 85
2019-01-25 06:00:00 12.8 7 Noroeste 12 Noroeste 0 -- -- 86
2019-01-25 05:00:00 13.1 5 Norte 12 Oeste 0 -- -- 84
2019-01-25 04:00:00 13 5 Noroeste 15 Norte 0 -- -- 80
2019-01-25 03:00:00 11.9 5 Noroeste 11 Noroeste 0 -- -- 80
2019-01-25 02:00:00 11.7 6 Noroeste 12 Noroeste 0 -- -- 78
2019-01-25 01:00:00 12.8 4 Norte 12 Norte 0 -- -- 79
2019-01-25 00:00:00 12.5 10 Norte 17 Norte 0 -- -- 81
2019-01-24 23:00:00 12.1 8 Noroeste 15 Norte 0 -- -- 74
2019-01-24 22:00:00 12.1 6 Norte 15 Norte 0 -- -- 73
2019-01-24 21:00:00 12.2 6 Noroeste 17 Oeste 0 -- -- 74
2019-01-24 20:00:00 12.3 10 Noroeste 19 Nordeste 0 -- -- 78
2019-01-24 19:00:00 13.4 14 Nordeste 33 Nordeste 0 -- -- 79
2019-01-24 18:00:00 14.2 14 Nordeste 31 Nordeste 0 -- -- 77
2019-01-24 17:00:00 15.8 17 Nordeste 27 Nordeste 0 -- -- 64
2019-01-24 16:00:00 15.3 14 Nordeste 33 Nordeste 0 -- -- 65
2019-01-24 15:00:00 16.3 14 Este 23 Este 0 -- -- 67
2019-01-24 14:00:00 15.5 15 Nordeste 25 Este 0 -- -- 72
2019-01-24 13:00:00 14.4 14 Nordeste 29 Este 0 -- -- 76
2019-01-24 12:00:00 15.9 16 Este 24 Nordeste 0 -- -- 67
2019-01-24 11:00:00 14.7 12 Nordeste 27 Nordeste 0 -- -- 66
2019-01-24 10:00:00 14.2 19 Nordeste 37 Nordeste 0 -- -- 69
2019-01-24 09:00:00 13.5 15 Nordeste 32 Nordeste 0 -- -- 81
2019-01-24 08:00:00 12 11 Nordeste 29 Nordeste 0 -- -- 85
2019-01-24 07:00:00 11.7 9 Norte 28 Nordeste 0 -- -- 75
2019-01-24 06:00:00 12.6 19 Nordeste 27 Nordeste 0 -- -- 81
2019-01-24 05:00:00 12.5 17 Norte 32 Nordeste 0 -- -- 71
2019-01-24 04:00:00 12.3 13 Nordeste 24 Este 0 -- -- 91
2019-01-24 03:00:00 11.7 14 Nordeste 23 Nordeste 0 -- -- 74
2019-01-24 02:00:00 11.8 10 Norte 24 Nordeste 0 -- -- 74
2019-01-24 01:00:00 12.2 12 Norte 21 Norte 0 -- -- 67
2019-01-24 00:00:00 13 13 Norte 26 Norte 0 -- -- 68